sensor_id;sensor_type;location;lat;lon;timestamp;P1;durP1;ratioP1;P2;durP2;ratioP2
27039;SDS011;14589;51.578;7.306;2023-04-24T05:01:03;9.13;;;3.10;;
27039;SDS011;14589;51.578;7.306;2023-04-24T05:03:40;8.48;;;3.83;;
27039;SDS011;14589;51.578;7.306;2023-04-24T05:06:13;9.18;;;4.63;;
27039;SDS011;14589;51.578;7.306;2023-04-24T05:08:44;6.80;;;3.40;;
27039;SDS011;14589;51.578;7.306;2023-04-24T05:11:25;7.90;;;3.45;;
27039;SDS011;14589;51.578;7.306;2023-04-24T05:13:56;7.80;;;3.33;;
27039;SDS011;14589;51.578;7.306;2023-04-24T05:16:35;6.35;;;3.15;;
27039;SDS011;14589;51.578;7.306;2023-04-24T05:19:08;9.07;;;2.72;;
27039;SDS011;14589;51.578;7.306;2023-04-24T05:21:42;9.40;;;3.63;;
27039;SDS011;14589;51.578;7.306;2023-04-24T05:24:14;11.68;;;3.45;;
27039;SDS011;14589;51.578;7.306;2023-04-24T05:26:48;7.38;;;3.38;;
27039;SDS011;14589;51.578;7.306;2023-04-24T05:29:23;10.35;;;4.20;;
27039;SDS011;14589;51.578;7.306;2023-04-24T05:31:53;7.38;;;3.42;;
27039;SDS011;14589;51.578;7.306;2023-04-24T05:34:25;7.00;;;2.45;;
27039;SDS011;14589;51.578;7.306;2023-04-24T05:36:59;6.80;;;3.17;;
27039;SDS011;14589;51.578;7.306;2023-04-24T05:39:30;6.93;;;3.10;;
27039;SDS011;14589;51.578;7.306;2023-04-24T05:42:00;5.03;;;2.92;;
27039;SDS011;14589;51.578;7.306;2023-04-24T05:44:31;5.13;;;2.35;;
27039;SDS011;14589;51.578;7.306;2023-04-24T05:47:03;7.32;;;2.53;;
27039;SDS011;14589;51.578;7.306;2023-04-24T05:49:33;5.25;;;2.33;;
27039;SDS011;14589;51.578;7.306;2023-04-24T05:52:04;5.18;;;2.92;;
27039;SDS011;14589;51.578;7.306;2023-04-24T05:54:36;7.55;;;2.47;;
27039;SDS011;14589;51.578;7.306;2023-04-24T05:57:07;5.95;;;2.20;;
27039;SDS011;14589;51.578;7.306;2023-04-24T05:59:55;5.80;;;2.90;;
27039;SDS011;14589;51.578;7.306;2023-04-24T06:02:26;4.85;;;2.38;;
27039;SDS011;14589;51.578;7.306;2023-04-24T06:05:00;5.80;;;2.53;;
27039;SDS011;14589;51.578;7.306;2023-04-24T06:07:31;6.13;;;3.50;;
27039;SDS011;14589;51.578;7.306;2023-04-24T06:10:03;7.45;;;2.88;;
27039;SDS011;14589;51.578;7.306;2023-04-24T06:12:41;5.85;;;3.10;;
27039;SDS011;14589;51.578;7.306;2023-04-24T06:15:18;4.85;;;2.10;;
27039;SDS011;14589;51.578;7.306;2023-04-24T06:18:21;6.78;;;2.63;;
27039;SDS011;14589;51.578;7.306;2023-04-24T06:20:52;7.65;;;3.65;;
27039;SDS011;14589;51.578;7.306;2023-04-24T06:23:23;6.40;;;2.83;;
27039;SDS011;14589;51.578;7.306;2023-04-24T06:25:53;6.15;;;2.88;;
27039;SDS011;14589;51.578;7.306;2023-04-24T06:28:24;4.85;;;2.45;;
27039;SDS011;14589;51.578;7.306;2023-04-24T06:30:56;7.00;;;2.22;;
27039;SDS011;14589;51.578;7.306;2023-04-24T06:33:26;4.45;;;2.13;;
27039;SDS011;14589;51.578;7.306;2023-04-24T06:35:56;5.30;;;2.47;;
27039;SDS011;14589;51.578;7.306;2023-04-24T06:38:27;8.50;;;3.80;;
27039;SDS011;14589;51.578;7.306;2023-04-24T06:43:30;3.63;;;1.80;;
27039;SDS011;14589;51.578;7.306;2023-04-24T06:46:00;7.95;;;2.25;;
27039;SDS011;14589;51.578;7.306;2023-04-24T06:48:32;5.43;;;2.65;;
27039;SDS011;14589;51.578;7.306;2023-04-24T06:51:03;4.30;;;2.17;;
27039;SDS011;14589;51.578;7.306;2023-04-24T06:53:33;4.38;;;1.67;;
27039;SDS011;14589;51.578;7.306;2023-04-24T06:56:03;4.15;;;2.35;;
27039;SDS011;14589;51.578;7.306;2023-04-24T06:58:34;6.57;;;2.17;;
27039;SDS011;14589;51.578;7.306;2023-04-24T07:01:04;7.70;;;2.03;;
27039;SDS011;14589;51.578;7.306;2023-04-24T07:03:35;5.10;;;2.53;;
27039;SDS011;14589;51.578;7.306;2023-04-24T07:06:05;4.43;;;2.25;;
27039;SDS011;14589;51.578;7.306;2023-04-24T07:08:36;5.13;;;1.40;;
27039;SDS011;14589;51.578;7.306;2023-04-24T07:11:07;4.10;;;1.65;;
27039;SDS011;14589;51.578;7.306;2023-04-24T07:13:37;4.07;;;1.73;;
27039;SDS011;14589;51.578;7.306;2023-04-24T07:16:11;3.38;;;1.55;;
27039;SDS011;14589;51.578;7.306;2023-04-24T07:18:42;3.28;;;1.48;;
27039;SDS011;14589;51.578;7.306;2023-04-24T07:21:12;3.63;;;2.08;;
27039;SDS011;14589;51.578;7.306;2023-04-24T07:23:42;3.13;;;1.20;;
27039;SDS011;14589;51.578;7.306;2023-04-24T07:26:13;3.38;;;1.15;;
27039;SDS011;14589;51.578;7.306;2023-04-24T07:28:44;5.10;;;1.45;;
27039;SDS011;14589;51.578;7.306;2023-04-24T07:31:15;2.97;;;1.38;;
27039;SDS011;14589;51.578;7.306;2023-04-24T07:33:45;3.22;;;1.10;;
27039;SDS011;14589;51.578;7.306;2023-04-24T07:36:16;3.08;;;0.70;;
27039;SDS011;14589;51.578;7.306;2023-04-24T07:38:48;3.33;;;0.68;;
27039;SDS011;14589;51.578;7.306;2023-04-24T07:41:19;1.77;;;0.60;;
27039;SDS011;14589;51.578;7.306;2023-04-24T07:43:51;1.95;;;0.45;;
27039;SDS011;14589;51.578;7.306;2023-04-24T07:46:23;3.15;;;1.13;;
27039;SDS011;14589;51.578;7.306;2023-04-24T07:48:54;2.45;;;0.30;;
27039;SDS011;14589;51.578;7.306;2023-04-24T07:51:25;4.47;;;0.77;;
27039;SDS011;14589;51.578;7.306;2023-04-24T07:53:57;1.90;;;0.63;;
27039;SDS011;14589;51.578;7.306;2023-04-24T07:56:27;1.35;;;0.55;;
27039;SDS011;14589;51.578;7.306;2023-04-24T07:59:01;2.83;;;0.95;;
27039;SDS011;14589;51.578;7.306;2023-04-24T08:01:31;1.60;;;0.63;;
27039;SDS011;14589;51.578;7.306;2023-04-24T08:04:01;3.35;;;0.57;;
27039;SDS011;14589;51.578;7.306;2023-04-24T08:06:32;2.90;;;0.70;;
27039;SDS011;14589;51.578;7.306;2023-04-24T08:09:03;1.33;;;0.45;;
27039;SDS011;14589;51.578;7.306;2023-04-24T08:11:33;2.25;;;0.22;;
27039;SDS011;14589;51.578;7.306;2023-04-24T08:14:03;1.38;;;0.20;;
27039;SDS011;14589;51.578;7.306;2023-04-24T08:16:34;0.52;;;0.08;;
27039;SDS011;14589;51.578;7.306;2023-04-24T08:19:04;1.00;;;0.77;;
27039;SDS011;14589;51.578;7.306;2023-04-24T08:21:35;1.27;;;0.55;;
27039;SDS011;14589;51.578;7.306;2023-04-24T08:24:05;0.68;;;0.15;;
27039;SDS011;14589;51.578;7.306;2023-04-24T08:26:38;0.38;;;0.00;;
27039;SDS011;14589;51.578;7.306;2023-04-24T08:29:08;1.83;;;0.30;;
27039;SDS011;14589;51.578;7.306;2023-04-24T08:31:39;1.42;;;0.13;;
27039;SDS011;14589;51.578;7.306;2023-04-24T08:34:10;0.35;;;0.03;;
27039;SDS011;14589;51.578;7.306;2023-04-24T08:36:40;0.20;;;0.10;;
27039;SDS011;14589;51.578;7.306;2023-04-24T08:39:11;0.43;;;0.28;;
27039;SDS011;14589;51.578;7.306;2023-04-24T08:41:42;0.65;;;0.03;;
27039;SDS011;14589;51.578;7.306;2023-04-24T08:44:13;0.60;;;0.00;;
27039;SDS011;14589;51.578;7.306;2023-04-24T08:46:46;0.70;;;0.17;;
27039;SDS011;14589;51.578;7.306;2023-04-24T08:49:18;0.60;;;0.20;;
27039;SDS011;14589;51.578;7.306;2023-04-24T08:51:49;0.22;;;0.22;;
27039;SDS011;14589;51.578;7.306;2023-04-24T08:54:21;0.32;;;0.08;;
27039;SDS011;14589;51.578;7.306;2023-04-24T08:56:51;0.68;;;0.10;;
27039;SDS011;14589;51.578;7.306;2023-04-24T08:59:26;1.02;;;0.00;;
27039;SDS011;14589;51.578;7.306;2023-04-24T09:01:58;0.17;;;0.05;;
27039;SDS011;14589;51.578;7.306;2023-04-24T09:04:28;0.40;;;0.28;;
27039;SDS011;14589;51.578;7.306;2023-04-24T09:06:59;1.08;;;0.03;;
27039;SDS011;14589;51.578;7.306;2023-04-24T09:09:31;0.90;;;0.05;;
27039;SDS011;14589;51.578;7.306;2023-04-24T09:12:02;0.57;;;0.20;;
27039;SDS011;14589;51.578;7.306;2023-04-24T09:14:33;0.40;;;0.00;;
27039;SDS011;14589;51.578;7.306;2023-04-24T09:19:36;0.95;;;0.13;;
27039;SDS011;14589;51.578;7.306;2023-04-24T09:22:07;0.80;;;0.13;;
27039;SDS011;14589;51.578;7.306;2023-04-24T09:24:39;1.60;;;0.50;;
27039;SDS011;14589;51.578;7.306;2023-04-24T09:27:10;2.65;;;0.45;;
27039;SDS011;14589;51.578;7.306;2023-04-24T09:29:53;1.10;;;0.32;;
27039;SDS011;14589;51.578;7.306;2023-04-24T09:32:25;1.30;;;0.22;;
27039;SDS011;14589;51.578;7.306;2023-04-24T09:35:11;3.33;;;1.05;;
27039;SDS011;14589;51.578;7.306;2023-04-24T09:37:44;1.10;;;0.60;;
27039;SDS011;14589;51.578;7.306;2023-04-24T09:42:55;3.13;;;0.50;;
27039;SDS011;14589;51.578;7.306;2023-04-24T09:45:38;3.33;;;1.00;;
27039;SDS011;14589;51.578;7.306;2023-04-24T09:48:09;1.60;;;0.50;;
27039;SDS011;14589;51.578;7.306;2023-04-24T09:50:40;1.92;;;0.82;;
27039;SDS011;14589;51.578;7.306;2023-04-24T09:53:16;1.42;;;0.82;;
27039;SDS011;14589;51.578;7.306;2023-04-24T09:55:54;2.58;;;1.17;;
27039;SDS011;14589;51.578;7.306;2023-04-24T09:58:25;2.55;;;0.60;;
27039;SDS011;14589;51.578;7.306;2023-04-24T10:00:58;1.05;;;0.13;;
27039;SDS011;14589;51.578;7.306;2023-04-24T10:03:32;1.40;;;0.45;;
27039;SDS011;14589;51.578;7.306;2023-04-24T10:06:03;1.05;;;0.45;;
27039;SDS011;14589;51.578;7.306;2023-04-24T10:08:39;0.90;;;0.40;;
27039;SDS011;14589;51.578;7.306;2023-04-24T10:11:09;1.13;;;0.22;;
27039;SDS011;14589;51.578;7.306;2023-04-24T10:13:41;0.75;;;0.40;;
27039;SDS011;14589;51.578;7.306;2023-04-24T10:16:12;4.32;;;0.77;;
27039;SDS011;14589;51.578;7.306;2023-04-24T10:18:44;2.75;;;1.33;;
27039;SDS011;14589;51.578;7.306;2023-04-24T10:21:16;2.20;;;0.30;;
27039;SDS011;14589;51.578;7.306;2023-04-24T10:23:47;2.15;;;0.63;;
27039;SDS011;14589;51.578;7.306;2023-04-24T10:26:19;4.38;;;0.88;;
27039;SDS011;14589;51.578;7.306;2023-04-24T10:28:50;10.95;;;2.92;;
27039;SDS011;14589;51.578;7.306;2023-04-24T10:31:23;7.10;;;2.70;;
27039;SDS011;14589;51.578;7.306;2023-04-24T10:33:55;2.97;;;0.70;;
27039;SDS011;14589;51.578;7.306;2023-04-24T10:36:25;5.25;;;1.40;;
27039;SDS011;14589;51.578;7.306;2023-04-24T10:38:59;4.03;;;0.93;;
27039;SDS011;14589;51.578;7.306;2023-04-24T10:41:31;4.55;;;1.70;;
27039;SDS011;14589;51.578;7.306;2023-04-24T10:44:05;5.60;;;1.58;;
27039;SDS011;14589;51.578;7.306;2023-04-24T10:46:39;4.78;;;1.25;;
27039;SDS011;14589;51.578;7.306;2023-04-24T10:49:29;3.65;;;1.70;;
27039;SDS011;14589;51.578;7.306;2023-04-24T10:52:01;3.75;;;1.75;;
27039;SDS011;14589;51.578;7.306;2023-04-24T10:54:36;5.30;;;1.55;;
27039;SDS011;14589;51.578;7.306;2023-04-24T11:02:45;3.80;;;1.77;;
27039;SDS011;14589;51.578;7.306;2023-04-24T11:05:19;4.88;;;1.92;;
27039;SDS011;14589;51.578;7.306;2023-04-24T11:10:44;5.30;;;1.33;;
27039;SDS011;14589;51.578;7.306;2023-04-24T11:13:16;4.30;;;2.05;;
27039;SDS011;14589;51.578;7.306;2023-04-24T11:18:44;5.85;;;1.83;;
27039;SDS011;14589;51.578;7.306;2023-04-24T11:21:21;4.32;;;1.60;;
27039;SDS011;14589;51.578;7.306;2023-04-24T11:23:52;7.10;;;1.65;;
27039;SDS011;14589;51.578;7.306;2023-04-24T11:26:23;5.07;;;1.85;;
27039;SDS011;14589;51.578;7.306;2023-04-24T11:29:06;3.08;;;1.50;;
27039;SDS011;14589;51.578;7.306;2023-04-24T11:31:38;5.93;;;1.67;;
27039;SDS011;14589;51.578;7.306;2023-04-24T11:34:11;3.80;;;1.48;;
27039;SDS011;14589;51.578;7.306;2023-04-24T11:36:45;5.55;;;1.58;;
27039;SDS011;14589;51.578;7.306;2023-04-24T11:39:16;6.15;;;1.73;;
27039;SDS011;14589;51.578;7.306;2023-04-24T11:41:46;5.88;;;2.55;;
27039;SDS011;14589;51.578;7.306;2023-04-24T11:44:17;7.35;;;1.77;;
27039;SDS011;14589;51.578;7.306;2023-04-24T11:46:50;7.07;;;2.33;;
27039;SDS011;14589;51.578;7.306;2023-04-24T11:49:21;6.78;;;1.70;;
27039;SDS011;14589;51.578;7.306;2023-04-24T11:51:54;6.88;;;2.05;;
27039;SDS011;14589;51.578;7.306;2023-04-24T11:54:25;5.35;;;2.08;;
27039;SDS011;14589;51.578;7.306;2023-04-24T11:56:56;6.90;;;1.60;;
27039;SDS011;14589;51.578;7.306;2023-04-24T11:59:27;5.57;;;1.50;;
27039;SDS011;14589;51.578;7.306;2023-04-24T12:01:57;7.32;;;1.30;;
27039;SDS011;14589;51.578;7.306;2023-04-24T12:04:37;9.57;;;1.73;;
27039;SDS011;14589;51.578;7.306;2023-04-24T12:07:08;6.10;;;2.30;;
27039;SDS011;14589;51.578;7.306;2023-04-24T12:09:42;6.40;;;1.65;;
27039;SDS011;14589;51.578;7.306;2023-04-24T12:12:15;8.43;;;1.90;;
27039;SDS011;14589;51.578;7.306;2023-04-24T12:14:53;8.18;;;1.70;;
27039;SDS011;14589;51.578;7.306;2023-04-24T12:17:28;5.70;;;1.05;;
27039;SDS011;14589;51.578;7.306;2023-04-24T12:20:01;8.02;;;1.02;;
27039;SDS011;14589;51.578;7.306;2023-04-24T12:25:25;6.32;;;1.00;;
27039;SDS011;14589;51.578;7.306;2023-04-24T12:30:35;3.63;;;0.88;;
27039;SDS011;14589;51.578;7.306;2023-04-24T12:33:10;4.85;;;1.00;;
27039;SDS011;14589;51.578;7.306;2023-04-24T12:35:40;9.32;;;1.50;;
27039;SDS011;14589;51.578;7.306;2023-04-24T12:38:12;10.43;;;1.83;;
27039;SDS011;14589;51.578;7.306;2023-04-24T12:40:43;3.25;;;1.05;;
27039;SDS011;14589;51.578;7.306;2023-04-24T12:45:46;4.03;;;1.20;;
27039;SDS011;14589;51.578;7.306;2023-04-24T12:48:17;4.00;;;1.17;;
27039;SDS011;14589;51.578;7.306;2023-04-24T12:50:48;2.90;;;0.88;;
27039;SDS011;14589;51.578;7.306;2023-04-24T12:53:19;4.85;;;0.95;;
27039;SDS011;14589;51.578;7.306;2023-04-24T12:55:49;5.15;;;1.35;;
27039;SDS011;14589;51.578;7.306;2023-04-24T12:58:22;2.60;;;0.60;;
27039;SDS011;14589;51.578;7.306;2023-04-24T13:00:53;3.85;;;0.85;;
27039;SDS011;14589;51.578;7.306;2023-04-24T13:03:24;3.33;;;0.93;;
27039;SDS011;14589;51.578;7.306;2023-04-24T13:05:54;5.28;;;1.63;;
27039;SDS011;14589;51.578;7.306;2023-04-24T13:08:25;4.57;;;1.17;;
27039;SDS011;14589;51.578;7.306;2023-04-24T13:10:55;2.80;;;0.88;;
27039;SDS011;14589;51.578;7.306;2023-04-24T13:13:26;3.20;;;1.00;;
27039;SDS011;14589;51.578;7.306;2023-04-24T13:15:56;3.50;;;0.60;;
27039;SDS011;14589;51.578;7.306;2023-04-24T13:18:27;3.85;;;0.73;;
27039;SDS011;14589;51.578;7.306;2023-04-24T13:20:57;1.77;;;0.60;;
27039;SDS011;14589;51.578;7.306;2023-04-24T13:23:27;2.53;;;0.60;;
27039;SDS011;14589;51.578;7.306;2023-04-24T13:25:58;2.65;;;1.40;;
27039;SDS011;14589;51.578;7.306;2023-04-24T13:28:28;2.95;;;0.50;;
27039;SDS011;14589;51.578;7.306;2023-04-24T13:30:59;3.15;;;0.85;;
27039;SDS011;14589;51.578;7.306;2023-04-24T13:33:30;3.35;;;0.45;;
27039;SDS011;14589;51.578;7.306;2023-04-24T13:36:00;1.60;;;0.38;;
27039;SDS011;14589;51.578;7.306;2023-04-24T13:38:30;2.67;;;0.30;;
27039;SDS011;14589;51.578;7.306;2023-04-24T13:41:01;2.95;;;0.52;;
27039;SDS011;14589;51.578;7.306;2023-04-24T13:43:33;1.17;;;0.10;;
27039;SDS011;14589;51.578;7.306;2023-04-24T13:46:03;1.75;;;0.63;;
27039;SDS011;14589;51.578;7.306;2023-04-24T13:48:34;1.67;;;0.75;;
27039;SDS011;14589;51.578;7.306;2023-04-24T13:51:04;1.35;;;0.10;;
27039;SDS011;14589;51.578;7.306;2023-04-24T13:53:35;4.20;;;0.20;;
27039;SDS011;14589;51.578;7.306;2023-04-24T13:56:06;1.95;;;0.38;;
27039;SDS011;14589;51.578;7.306;2023-04-24T13:58:36;1.75;;;0.45;;
27039;SDS011;14589;51.578;7.306;2023-04-24T14:01:07;3.22;;;0.55;;
27039;SDS011;14589;51.578;7.306;2023-04-24T14:03:37;2.05;;;0.50;;
27039;SDS011;14589;51.578;7.306;2023-04-24T14:06:08;2.58;;;0.30;;
27039;SDS011;14589;51.578;7.306;2023-04-24T14:08:39;2.30;;;0.82;;
27039;SDS011;14589;51.578;7.306;2023-04-24T14:11:09;4.00;;;0.60;;
27039;SDS011;14589;51.578;7.306;2023-04-24T14:13:40;3.53;;;1.13;;
27039;SDS011;14589;51.578;7.306;2023-04-24T14:16:12;4.32;;;0.80;;
27039;SDS011;14589;51.578;7.306;2023-04-24T14:18:43;2.58;;;0.60;;
27039;SDS011;14589;51.578;7.306;2023-04-24T14:21:13;4.90;;;1.25;;
27039;SDS011;14589;51.578;7.306;2023-04-24T14:23:46;5.55;;;1.17;;
27039;SDS011;14589;51.578;7.306;2023-04-24T14:26:16;6.95;;;0.68;;
27039;SDS011;14589;51.578;7.306;2023-04-24T14:28:47;3.25;;;0.90;;
27039;SDS011;14589;51.578;7.306;2023-04-24T14:31:24;5.32;;;1.45;;
27039;SDS011;14589;51.578;7.306;2023-04-24T14:33:54;5.18;;;0.73;;
27039;SDS011;14589;51.578;7.306;2023-04-24T14:36:25;3.83;;;0.63;;
27039;SDS011;14589;51.578;7.306;2023-04-24T14:38:55;2.67;;;0.82;;
27039;SDS011;14589;51.578;7.306;2023-04-24T14:41:25;2.20;;;0.47;;
27039;SDS011;14589;51.578;7.306;2023-04-24T14:43:56;3.33;;;0.90;;
27039;SDS011;14589;51.578;7.306;2023-04-24T14:46:26;6.80;;;0.88;;
27039;SDS011;14589;51.578;7.306;2023-04-24T14:48:57;4.63;;;0.93;;
27039;SDS011;14589;51.578;7.306;2023-04-24T14:51:28;4.13;;;0.32;;
27039;SDS011;14589;51.578;7.306;2023-04-24T14:53:59;2.95;;;0.60;;
27039;SDS011;14589;51.578;7.306;2023-04-24T14:56:29;5.97;;;0.93;;
27039;SDS011;14589;51.578;7.306;2023-04-24T14:59:00;4.60;;;0.93;;
27039;SDS011;14589;51.578;7.306;2023-04-24T15:01:30;2.95;;;0.70;;
27039;SDS011;14589;51.578;7.306;2023-04-24T15:04:01;5.40;;;1.08;;
27039;SDS011;14589;51.578;7.306;2023-04-24T15:06:31;6.57;;;0.57;;
27039;SDS011;14589;51.578;7.306;2023-04-24T15:09:02;2.67;;;0.90;;
27039;SDS011;14589;51.578;7.306;2023-04-24T15:11:33;2.75;;;0.55;;
27039;SDS011;14589;51.578;7.306;2023-04-24T15:14:03;3.03;;;0.52;;
27039;SDS011;14589;51.578;7.306;2023-04-24T15:16:34;4.15;;;0.57;;
27039;SDS011;14589;51.578;7.306;2023-04-24T15:19:05;4.53;;;0.70;;
27039;SDS011;14589;51.578;7.306;2023-04-24T15:21:36;1.90;;;0.90;;
27039;SDS011;14589;51.578;7.306;2023-04-24T15:24:07;1.88;;;0.63;;
27039;SDS011;14589;51.578;7.306;2023-04-24T15:26:39;2.05;;;0.60;;
27039;SDS011;14589;51.578;7.306;2023-04-24T15:29:10;4.35;;;0.30;;
27039;SDS011;14589;51.578;7.306;2023-04-24T15:31:40;2.55;;;0.85;;
27039;SDS011;14589;51.578;7.306;2023-04-24T15:34:10;2.92;;;1.17;;
27039;SDS011;14589;51.578;7.306;2023-04-24T15:36:41;2.28;;;0.68;;
27039;SDS011;14589;51.578;7.306;2023-04-24T15:39:11;2.40;;;0.57;;
27039;SDS011;14589;51.578;7.306;2023-04-24T15:41:42;1.98;;;0.20;;
27039;SDS011;14589;51.578;7.306;2023-04-24T15:44:12;1.05;;;0.13;;
27039;SDS011;14589;51.578;7.306;2023-04-24T15:46:43;1.40;;;0.47;;
27039;SDS011;14589;51.578;7.306;2023-04-24T15:49:13;1.15;;;0.20;;
27039;SDS011;14589;51.578;7.306;2023-04-24T15:51:44;1.15;;;0.20;;
27039;SDS011;14589;51.578;7.306;2023-04-24T15:54:14;3.03;;;0.73;;
27039;SDS011;14589;51.578;7.306;2023-04-24T15:56:45;2.28;;;0.38;;
27039;SDS011;14589;51.578;7.306;2023-04-24T15:59:16;2.25;;;0.13;;
27039;SDS011;14589;51.578;7.306;2023-04-24T16:01:46;3.85;;;0.43;;
27039;SDS011;14589;51.578;7.306;2023-04-24T16:04:17;1.33;;;0.25;;
27039;SDS011;14589;51.578;7.306;2023-04-24T16:06:48;4.57;;;0.85;;
27039;SDS011;14589;51.578;7.306;2023-04-24T16:09:18;1.42;;;0.10;;
27039;SDS011;14589;51.578;7.306;2023-04-24T16:11:48;1.42;;;0.45;;
27039;SDS011;14589;51.578;7.306;2023-04-24T16:14:19;2.63;;;0.38;;
27039;SDS011;14589;51.578;7.306;2023-04-24T16:16:49;1.75;;;0.40;;
27039;SDS011;14589;51.578;7.306;2023-04-24T16:19:20;1.00;;;0.35;;
27039;SDS011;14589;51.578;7.306;2023-04-24T16:21:51;2.45;;;0.10;;
27039;SDS011;14589;51.578;7.306;2023-04-24T16:24:23;1.65;;;0.10;;
27039;SDS011;14589;51.578;7.306;2023-04-24T16:26:54;1.80;;;0.82;;
27039;SDS011;14589;51.578;7.306;2023-04-24T16:29:25;3.20;;;0.90;;
27039;SDS011;14589;51.578;7.306;2023-04-24T16:31:55;2.60;;;0.98;;
27039;SDS011;14589;51.578;7.306;2023-04-24T16:34:26;1.88;;;0.38;;
27039;SDS011;14589;51.578;7.306;2023-04-24T16:36:56;4.35;;;0.45;;
27039;SDS011;14589;51.578;7.306;2023-04-24T16:39:27;4.03;;;0.30;;
27039;SDS011;14589;51.578;7.306;2023-04-24T16:41:58;1.27;;;0.30;;
27039;SDS011;14589;51.578;7.306;2023-04-24T16:44:28;3.25;;;0.20;;
27039;SDS011;14589;51.578;7.306;2023-04-24T16:47:01;2.45;;;0.93;;
27039;SDS011;14589;51.578;7.306;2023-04-24T16:49:31;1.60;;;0.20;;
27039;SDS011;14589;51.578;7.306;2023-04-24T16:52:02;3.45;;;0.77;;
27039;SDS011;14589;51.578;7.306;2023-04-24T16:54:35;1.33;;;0.35;;
27039;SDS011;14589;51.578;7.306;2023-04-24T16:57:09;1.98;;;0.35;;
27039;SDS011;14589;51.578;7.306;2023-04-24T16:59:39;1.13;;;0.43;;
27039;SDS011;14589;51.578;7.306;2023-04-24T17:02:10;3.83;;;0.47;;
27039;SDS011;14589;51.578;7.306;2023-04-24T17:04:40;2.53;;;0.65;;
27039;SDS011;14589;51.578;7.306;2023-04-24T17:07:11;3.92;;;0.73;;
27039;SDS011;14589;51.578;7.306;2023-04-24T17:09:42;1.35;;;0.30;;
27039;SDS011;14589;51.578;7.306;2023-04-24T17:12:12;3.60;;;0.30;;
27039;SDS011;14589;51.578;7.306;2023-04-24T17:14:43;3.22;;;0.45;;
27039;SDS011;14589;51.578;7.306;2023-04-24T17:17:13;2.15;;;0.20;;
27039;SDS011;14589;51.578;7.306;2023-04-24T17:19:45;3.70;;;1.45;;
27039;SDS011;14589;51.578;7.306;2023-04-24T17:22:16;2.60;;;0.35;;
27039;SDS011;14589;51.578;7.306;2023-04-24T17:24:46;1.88;;;0.20;;
27039;SDS011;14589;51.578;7.306;2023-04-24T17:27:17;2.95;;;0.38;;
27039;SDS011;14589;51.578;7.306;2023-04-24T17:29:47;1.50;;;0.47;;
27039;SDS011;14589;51.578;7.306;2023-04-24T17:32:18;4.32;;;0.25;;
27039;SDS011;14589;51.578;7.306;2023-04-24T17:34:49;2.05;;;0.30;;
27039;SDS011;14589;51.578;7.306;2023-04-24T17:37:19;1.38;;;0.50;;
27039;SDS011;14589;51.578;7.306;2023-04-24T17:39:52;3.33;;;0.43;;
27039;SDS011;14589;51.578;7.306;2023-04-24T17:42:22;5.10;;;0.22;;
27039;SDS011;14589;51.578;7.306;2023-04-24T17:44:53;0.95;;;0.25;;
27039;SDS011;14589;51.578;7.306;2023-04-24T17:47:23;3.28;;;0.50;;
27039;SDS011;14589;51.578;7.306;2023-04-24T17:49:55;4.72;;;0.80;;
27039;SDS011;14589;51.578;7.306;2023-04-24T17:52:25;2.80;;;0.20;;
27039;SDS011;14589;51.578;7.306;2023-04-24T17:54:56;2.08;;;0.57;;
27039;SDS011;14589;51.578;7.306;2023-04-24T17:57:26;2.42;;;1.40;;
27039;SDS011;14589;51.578;7.306;2023-04-24T17:59:56;3.03;;;0.52;;
27039;SDS011;14589;51.578;7.306;2023-04-24T18:02:27;3.30;;;1.23;;
27039;SDS011;14589;51.578;7.306;2023-04-24T18:04:57;2.47;;;0.50;;
27039;SDS011;14589;51.578;7.306;2023-04-24T18:07:30;4.07;;;0.43;;
27039;SDS011;14589;51.578;7.306;2023-04-24T18:10:01;3.35;;;0.40;;
27039;SDS011;14589;51.578;7.306;2023-04-24T18:12:31;1.95;;;0.75;;
27039;SDS011;14589;51.578;7.306;2023-04-24T18:15:02;6.57;;;0.40;;
27039;SDS011;14589;51.578;7.306;2023-04-24T18:20:04;1.83;;;0.45;;
27039;SDS011;14589;51.578;7.306;2023-04-24T18:22:36;2.05;;;0.88;;
27039;SDS011;14589;51.578;7.306;2023-04-24T18:25:07;4.65;;;0.22;;
27039;SDS011;14589;51.578;7.306;2023-04-24T18:27:39;4.38;;;1.33;;
27039;SDS011;14589;51.578;7.306;2023-04-24T18:30:10;4.63;;;1.65;;
27039;SDS011;14589;51.578;7.306;2023-04-24T18:32:41;3.25;;;0.43;;
27039;SDS011;14589;51.578;7.306;2023-04-24T18:35:11;6.63;;;0.52;;
27039;SDS011;14589;51.578;7.306;2023-04-24T18:37:42;5.32;;;0.57;;
27039;SDS011;14589;51.578;7.306;2023-04-24T18:40:15;3.92;;;0.40;;
27039;SDS011;14589;51.578;7.306;2023-04-24T18:42:46;3.08;;;0.95;;
27039;SDS011;14589;51.578;7.306;2023-04-24T18:45:16;4.15;;;0.57;;
27039;SDS011;14589;51.578;7.306;2023-04-24T18:47:47;3.53;;;0.45;;
27039;SDS011;14589;51.578;7.306;2023-04-24T18:50:18;3.70;;;0.40;;
27039;SDS011;14589;51.578;7.306;2023-04-24T18:52:48;5.35;;;1.15;;
27039;SDS011;14589;51.578;7.306;2023-04-24T18:55:18;4.05;;;0.68;;
27039;SDS011;14589;51.578;7.306;2023-04-24T18:57:49;5.20;;;1.08;;
27039;SDS011;14589;51.578;7.306;2023-04-24T19:00:19;1.63;;;0.55;;
27039;SDS011;14589;51.578;7.306;2023-04-24T19:02:50;2.88;;;0.47;;
27039;SDS011;14589;51.578;7.306;2023-04-24T19:05:20;5.30;;;0.63;;
27039;SDS011;14589;51.578;7.306;2023-04-24T19:07:50;3.40;;;0.70;;
27039;SDS011;14589;51.578;7.306;2023-04-24T19:10:21;3.15;;;0.98;;
27039;SDS011;14589;51.578;7.306;2023-04-24T19:12:51;4.22;;;1.17;;
27039;SDS011;14589;51.578;7.306;2023-04-24T19:15:25;6.45;;;1.05;;
27039;SDS011;14589;51.578;7.306;2023-04-24T19:17:58;7.53;;;0.82;;
27039;SDS011;14589;51.578;7.306;2023-04-24T19:20:29;3.55;;;0.80;;
27039;SDS011;14589;51.578;7.306;2023-04-24T19:22:59;6.65;;;1.20;;
27039;SDS011;14589;51.578;7.306;2023-04-24T19:25:30;5.22;;;1.35;;
27039;SDS011;14589;51.578;7.306;2023-04-24T19:28:01;4.95;;;0.70;;
27039;SDS011;14589;51.578;7.306;2023-04-24T19:30:31;4.70;;;0.63;;
27039;SDS011;14589;51.578;7.306;2023-04-24T19:33:01;6.75;;;1.10;;
27039;SDS011;14589;51.578;7.306;2023-04-24T19:35:32;2.42;;;0.60;;
27039;SDS011;14589;51.578;7.306;2023-04-24T19:38:05;5.63;;;1.40;;
27039;SDS011;14589;51.578;7.306;2023-04-24T19:40:36;5.93;;;1.10;;
27039;SDS011;14589;51.578;7.306;2023-04-24T19:43:06;3.35;;;0.65;;
27039;SDS011;14589;51.578;7.306;2023-04-24T19:45:36;4.78;;;0.88;;
27039;SDS011;14589;51.578;7.306;2023-04-24T19:48:07;7.07;;;0.73;;
27039;SDS011;14589;51.578;7.306;2023-04-24T19:50:38;8.43;;;1.15;;
27039;SDS011;14589;51.578;7.306;2023-04-24T19:53:08;5.30;;;1.30;;
27039;SDS011;14589;51.578;7.306;2023-04-24T19:55:41;4.43;;;0.90;;
27039;SDS011;14589;51.578;7.306;2023-04-24T19:58:11;7.75;;;1.88;;
27039;SDS011;14589;51.578;7.306;2023-04-24T20:00:41;7.00;;;1.42;;
27039;SDS011;14589;51.578;7.306;2023-04-24T20:03:12;3.20;;;1.35;;
27039;SDS011;14589;51.578;7.306;2023-04-24T20:05:42;6.63;;;1.88;;
27039;SDS011;14589;51.578;7.306;2023-04-24T20:08:13;5.70;;;0.47;;
27039;SDS011;14589;51.578;7.306;2023-04-24T20:10:43;8.82;;;1.60;;
27039;SDS011;14589;51.578;7.306;2023-04-24T20:13:14;8.25;;;1.35;;
27039;SDS011;14589;51.578;7.306;2023-04-24T20:15:45;5.05;;;1.23;;
27039;SDS011;14589;51.578;7.306;2023-04-24T20:18:15;4.70;;;1.10;;
27039;SDS011;14589;51.578;7.306;2023-04-24T20:20:46;4.05;;;1.23;;
27039;SDS011;14589;51.578;7.306;2023-04-24T20:23:16;4.22;;;1.23;;
27039;SDS011;14589;51.578;7.306;2023-04-24T20:25:47;13.40;;;1.25;;
27039;SDS011;14589;51.578;7.306;2023-04-24T20:28:17;4.93;;;1.80;;
27039;SDS011;14589;51.578;7.306;2023-04-24T20:30:48;8.25;;;1.30;;
27039;SDS011;14589;51.578;7.306;2023-04-24T20:33:19;3.85;;;1.35;;
27039;SDS011;14589;51.578;7.306;2023-04-24T20:35:49;3.30;;;1.25;;
27039;SDS011;14589;51.578;7.306;2023-04-24T20:38:21;5.13;;;1.00;;
27039;SDS011;14589;51.578;7.306;2023-04-24T20:40:51;9.40;;;2.80;;
27039;SDS011;14589;51.578;7.306;2023-04-24T20:43:22;8.77;;;1.27;;